sensor_id;sensor_type;location;lat;lon;timestamp;P1;durP1;ratioP1;P2;durP2;ratioP2
2396;SDS011;1209;48.410;9.054;2022-10-31T00:02:02;4.53;;;2.80;;
2396;SDS011;1209;48.410;9.054;2022-10-31T00:04:28;2.90;;;2.60;;
2396;SDS011;1209;48.410;9.054;2022-10-31T00:06:53;6.70;;;3.37;;
2396;SDS011;1209;48.410;9.054;2022-10-31T00:09:18;2.90;;;2.27;;
2396;SDS011;1209;48.410;9.054;2022-10-31T00:11:51;4.71;;;3.07;;
2396;SDS011;1209;48.410;9.054;2022-10-31T00:14:16;3.07;;;2.50;;
2396;SDS011;1209;48.410;9.054;2022-10-31T00:16:41;2.93;;;2.30;;
2396;SDS011;1209;48.410;9.054;2022-10-31T00:19:07;6.63;;;3.10;;
2396;SDS011;1209;48.410;9.054;2022-10-31T00:21:33;7.30;;;3.70;;
2396;SDS011;1209;48.410;9.054;2022-10-31T00:23:59;4.63;;;2.30;;
2396;SDS011;1209;48.410;9.054;2022-10-31T00:26:28;2.83;;;2.40;;
2396;SDS011;1209;48.410;9.054;2022-10-31T00:28:55;3.07;;;2.23;;
2396;SDS011;1209;48.410;9.054;2022-10-31T00:31:20;3.70;;;2.40;;
2396;SDS011;1209;48.410;9.054;2022-10-31T00:33:45;4.40;;;2.73;;
2396;SDS011;1209;48.410;9.054;2022-10-31T00:36:16;4.97;;;2.43;;
2396;SDS011;1209;48.410;9.054;2022-10-31T00:38:43;2.93;;;2.60;;
2396;SDS011;1209;48.410;9.054;2022-10-31T00:41:10;4.20;;;2.70;;
2396;SDS011;1209;48.410;9.054;2022-10-31T00:43:36;4.50;;;2.43;;
2396;SDS011;1209;48.410;9.054;2022-10-31T00:46:02;3.23;;;2.10;;
2396;SDS011;1209;48.410;9.054;2022-10-31T00:48:27;8.13;;;2.87;;
2396;SDS011;1209;48.410;9.054;2022-10-31T00:50:53;3.20;;;2.40;;
2396;SDS011;1209;48.410;9.054;2022-10-31T00:53:19;6.43;;;2.20;;
2396;SDS011;1209;48.410;9.054;2022-10-31T00:55:44;5.00;;;2.90;;
2396;SDS011;1209;48.410;9.054;2022-10-31T00:58:09;4.00;;;2.53;;
2396;SDS011;1209;48.410;9.054;2022-10-31T01:00:35;2.73;;;2.20;;
2396;SDS011;1209;48.410;9.054;2022-10-31T01:03:00;4.00;;;2.13;;
2396;SDS011;1209;48.410;9.054;2022-10-31T01:05:26;3.43;;;2.50;;
2396;SDS011;1209;48.410;9.054;2022-10-31T01:07:51;6.17;;;2.20;;
2396;SDS011;1209;48.410;9.054;2022-10-31T01:10:16;4.63;;;2.03;;
2396;SDS011;1209;48.410;9.054;2022-10-31T01:12:43;5.97;;;2.17;;
2396;SDS011;1209;48.410;9.054;2022-10-31T01:15:11;8.30;;;2.40;;
2396;SDS011;1209;48.410;9.054;2022-10-31T01:17:37;3.90;;;2.40;;
2396;SDS011;1209;48.410;9.054;2022-10-31T01:20:03;4.97;;;2.33;;
2396;SDS011;1209;48.410;9.054;2022-10-31T01:22:30;2.80;;;2.23;;
2396;SDS011;1209;48.410;9.054;2022-10-31T01:24:55;4.53;;;2.13;;
2396;SDS011;1209;48.410;9.054;2022-10-31T01:27:20;2.20;;;2.00;;
2396;SDS011;1209;48.410;9.054;2022-10-31T01:29:46;2.60;;;2.13;;
2396;SDS011;1209;48.410;9.054;2022-10-31T01:32:11;2.40;;;2.20;;
2396;SDS011;1209;48.410;9.054;2022-10-31T01:34:36;2.87;;;2.00;;
2396;SDS011;1209;48.410;9.054;2022-10-31T01:37:02;4.67;;;2.20;;
2396;SDS011;1209;48.410;9.054;2022-10-31T01:39:27;3.10;;;2.20;;
2396;SDS011;1209;48.410;9.054;2022-10-31T01:41:53;3.70;;;2.37;;
2396;SDS011;1209;48.410;9.054;2022-10-31T01:46:54;3.60;;;2.27;;
2396;SDS011;1209;48.410;9.054;2022-10-31T01:52:04;2.40;;;2.20;;
2396;SDS011;1209;48.410;9.054;2022-10-31T01:54:37;3.43;;;2.27;;
2396;SDS011;1209;48.410;9.054;2022-10-31T01:57:06;3.87;;;2.67;;
2396;SDS011;1209;48.410;9.054;2022-10-31T01:59:35;2.43;;;2.03;;
2396;SDS011;1209;48.410;9.054;2022-10-31T02:02:07;2.10;;;1.63;;
2396;SDS011;1209;48.410;9.054;2022-10-31T02:04:33;3.63;;;1.93;;
2396;SDS011;1209;48.410;9.054;2022-10-31T02:07:03;2.10;;;1.83;;
2396;SDS011;1209;48.410;9.054;2022-10-31T02:09:32;2.77;;;1.90;;
2396;SDS011;1209;48.410;9.054;2022-10-31T02:11:59;3.40;;;2.23;;
2396;SDS011;1209;48.410;9.054;2022-10-31T02:14:26;5.50;;;2.43;;
2396;SDS011;1209;48.410;9.054;2022-10-31T02:16:54;6.13;;;2.00;;
2396;SDS011;1209;48.410;9.054;2022-10-31T02:25:03;2.97;;;2.00;;
2396;SDS011;1209;48.410;9.054;2022-10-31T02:27:48;3.50;;;2.30;;
2396;SDS011;1209;48.410;9.054;2022-10-31T02:30:38;1.70;;;1.60;;
2396;SDS011;1209;48.410;9.054;2022-10-31T02:38:39;3.53;;;1.80;;
2396;SDS011;1209;48.410;9.054;2022-10-31T02:41:18;3.43;;;2.40;;
2396;SDS011;1209;48.410;9.054;2022-10-31T02:47:00;5.00;;;2.40;;
2396;SDS011;1209;48.410;9.054;2022-10-31T02:52:49;2.90;;;2.13;;
2396;SDS011;1209;48.410;9.054;2022-10-31T02:57:47;4.53;;;3.13;;
2396;SDS011;1209;48.410;9.054;2022-10-31T03:00:13;2.53;;;2.03;;
2396;SDS011;1209;48.410;9.054;2022-10-31T03:02:44;6.90;;;2.83;;
2396;SDS011;1209;48.410;9.054;2022-10-31T03:05:23;2.37;;;1.90;;
2396;SDS011;1209;48.410;9.054;2022-10-31T03:11:03;6.40;;;2.03;;
2396;SDS011;1209;48.410;9.054;2022-10-31T03:13:49;3.77;;;2.57;;
2396;SDS011;1209;48.410;9.054;2022-10-31T03:19:17;9.40;;;2.47;;
2396;SDS011;1209;48.410;9.054;2022-10-31T03:22:39;7.53;;;2.47;;
2396;SDS011;1209;48.410;9.054;2022-10-31T03:24:41;4.13;;;2.00;;
2396;SDS011;1209;48.410;9.054;2022-10-31T03:27:08;2.13;;;1.93;;
2396;SDS011;1209;48.410;9.054;2022-10-31T03:29:38;9.20;;;2.53;;
2396;SDS011;1209;48.410;9.054;2022-10-31T03:32:06;3.87;;;2.43;;
2396;SDS011;1209;48.410;9.054;2022-10-31T03:34:45;2.50;;;2.30;;
2396;SDS011;1209;48.410;9.054;2022-10-31T03:37:13;2.93;;;2.60;;
2396;SDS011;1209;48.410;9.054;2022-10-31T03:39:42;4.90;;;3.13;;
2396;SDS011;1209;48.410;9.054;2022-10-31T03:42:31;10.03;;;2.90;;
2396;SDS011;1209;48.410;9.054;2022-10-31T03:45:05;6.57;;;2.40;;
2396;SDS011;1209;48.410;9.054;2022-10-31T03:47:36;2.67;;;2.37;;
2396;SDS011;1209;48.410;9.054;2022-10-31T03:50:03;4.37;;;2.77;;
2396;SDS011;1209;48.410;9.054;2022-10-31T03:55:16;3.37;;;2.30;;
2396;SDS011;1209;48.410;9.054;2022-10-31T03:58:00;5.77;;;2.10;;
2396;SDS011;1209;48.410;9.054;2022-10-31T04:00:30;3.37;;;2.17;;
2396;SDS011;1209;48.410;9.054;2022-10-31T04:03:01;4.80;;;2.20;;
2396;SDS011;1209;48.410;9.054;2022-10-31T04:05:31;4.30;;;2.23;;
2396;SDS011;1209;48.410;9.054;2022-10-31T04:07:59;2.20;;;1.97;;
2396;SDS011;1209;48.410;9.054;2022-10-31T04:10:28;2.97;;;2.27;;
2396;SDS011;1209;48.410;9.054;2022-10-31T04:12:56;3.73;;;2.23;;
2396;SDS011;1209;48.410;9.054;2022-10-31T04:15:26;5.17;;;2.07;;
2396;SDS011;1209;48.410;9.054;2022-10-31T04:17:53;3.27;;;2.47;;
2396;SDS011;1209;48.410;9.054;2022-10-31T04:20:29;4.10;;;2.53;;
2396;SDS011;1209;48.410;9.054;2022-10-31T04:22:56;2.53;;;2.20;;
2396;SDS011;1209;48.410;9.054;2022-10-31T04:25:21;2.37;;;2.03;;
2396;SDS011;1209;48.410;9.054;2022-10-31T04:27:46;3.30;;;1.80;;
2396;SDS011;1209;48.410;9.054;2022-10-31T04:30:12;3.70;;;1.93;;
2396;SDS011;1209;48.410;9.054;2022-10-31T04:32:37;4.40;;;2.17;;
2396;SDS011;1209;48.410;9.054;2022-10-31T04:35:02;6.80;;;2.60;;
2396;SDS011;1209;48.410;9.054;2022-10-31T04:37:28;2.97;;;2.30;;
2396;SDS011;1209;48.410;9.054;2022-10-31T04:39:53;3.67;;;2.03;;
2396;SDS011;1209;48.410;9.054;2022-10-31T04:42:18;3.20;;;2.27;;
2396;SDS011;1209;48.410;9.054;2022-10-31T04:44:44;2.93;;;2.63;;
2396;SDS011;1209;48.410;9.054;2022-10-31T04:47:09;1.90;;;1.80;;
2396;SDS011;1209;48.410;9.054;2022-10-31T04:49:34;3.87;;;2.60;;
2396;SDS011;1209;48.410;9.054;2022-10-31T04:52:00;2.40;;;2.20;;
2396;SDS011;1209;48.410;9.054;2022-10-31T04:54:25;5.87;;;2.60;;
2396;SDS011;1209;48.410;9.054;2022-10-31T04:56:50;2.20;;;2.00;;
2396;SDS011;1209;48.410;9.054;2022-10-31T04:59:15;3.60;;;2.23;;
2396;SDS011;1209;48.410;9.054;2022-10-31T05:01:41;5.30;;;2.80;;
2396;SDS011;1209;48.410;9.054;2022-10-31T05:04:06;2.93;;;2.30;;
2396;SDS011;1209;48.410;9.054;2022-10-31T05:06:31;2.60;;;2.30;;
2396;SDS011;1209;48.410;9.054;2022-10-31T05:08:56;2.33;;;2.13;;
2396;SDS011;1209;48.410;9.054;2022-10-31T05:11:22;4.23;;;2.43;;
2396;SDS011;1209;48.410;9.054;2022-10-31T05:13:47;4.53;;;1.90;;
2396;SDS011;1209;48.410;9.054;2022-10-31T05:16:12;3.60;;;2.17;;
2396;SDS011;1209;48.410;9.054;2022-10-31T05:18:38;3.33;;;2.17;;
2396;SDS011;1209;48.410;9.054;2022-10-31T05:21:03;5.10;;;2.50;;
2396;SDS011;1209;48.410;9.054;2022-10-31T05:23:28;10.00;;;2.67;;
2396;SDS011;1209;48.410;9.054;2022-10-31T05:25:54;5.20;;;2.40;;
2396;SDS011;1209;48.410;9.054;2022-10-31T05:28:19;3.60;;;2.10;;
2396;SDS011;1209;48.410;9.054;2022-10-31T05:30:44;3.30;;;2.53;;
2396;SDS011;1209;48.410;9.054;2022-10-31T05:33:09;2.50;;;2.30;;
2396;SDS011;1209;48.410;9.054;2022-10-31T05:35:35;3.40;;;2.60;;
2396;SDS011;1209;48.410;9.054;2022-10-31T05:38:00;4.77;;;2.93;;
2396;SDS011;1209;48.410;9.054;2022-10-31T05:40:26;4.50;;;2.17;;
2396;SDS011;1209;48.410;9.054;2022-10-31T05:42:52;6.50;;;2.73;;
2396;SDS011;1209;48.410;9.054;2022-10-31T05:45:19;9.40;;;3.10;;
2396;SDS011;1209;48.410;9.054;2022-10-31T05:48:04;4.60;;;3.00;;
2396;SDS011;1209;48.410;9.054;2022-10-31T05:50:30;2.97;;;2.40;;
2396;SDS011;1209;48.410;9.054;2022-10-31T05:52:57;5.47;;;2.33;;
2396;SDS011;1209;48.410;9.054;2022-10-31T05:55:24;7.00;;;2.97;;
2396;SDS011;1209;48.410;9.054;2022-10-31T05:57:51;14.83;;;3.10;;
2396;SDS011;1209;48.410;9.054;2022-10-31T06:00:18;3.63;;;2.90;;
2396;SDS011;1209;48.410;9.054;2022-10-31T06:02:44;5.60;;;3.50;;
2396;SDS011;1209;48.410;9.054;2022-10-31T06:05:09;5.03;;;3.93;;
2396;SDS011;1209;48.410;9.054;2022-10-31T06:07:34;3.73;;;2.60;;
2396;SDS011;1209;48.410;9.054;2022-10-31T06:10:00;3.70;;;2.70;;
2396;SDS011;1209;48.410;9.054;2022-10-31T06:12:27;5.93;;;4.10;;
2396;SDS011;1209;48.410;9.054;2022-10-31T06:14:53;15.50;;;6.50;;
2396;SDS011;1209;48.410;9.054;2022-10-31T06:17:18;9.33;;;6.37;;
2396;SDS011;1209;48.410;9.054;2022-10-31T06:19:43;14.43;;;5.87;;
2396;SDS011;1209;48.410;9.054;2022-10-31T06:22:08;10.07;;;5.50;;
2396;SDS011;1209;48.410;9.054;2022-10-31T06:24:36;20.70;;;6.20;;
2396;SDS011;1209;48.410;9.054;2022-10-31T06:27:02;14.07;;;5.87;;
2396;SDS011;1209;48.410;9.054;2022-10-31T06:29:27;16.90;;;7.07;;
2396;SDS011;1209;48.410;9.054;2022-10-31T06:31:52;11.43;;;6.30;;
2396;SDS011;1209;48.410;9.054;2022-10-31T06:34:17;10.30;;;6.37;;
2396;SDS011;1209;48.410;9.054;2022-10-31T06:36:43;8.90;;;5.10;;
2396;SDS011;1209;48.410;9.054;2022-10-31T06:39:10;11.10;;;5.77;;
2396;SDS011;1209;48.410;9.054;2022-10-31T06:41:35;8.40;;;5.30;;
2396;SDS011;1209;48.410;9.054;2022-10-31T06:44:01;9.20;;;5.80;;
2396;SDS011;1209;48.410;9.054;2022-10-31T06:46:26;10.47;;;6.17;;
2396;SDS011;1209;48.410;9.054;2022-10-31T06:48:52;17.30;;;6.80;;
2396;SDS011;1209;48.410;9.054;2022-10-31T06:51:17;16.07;;;5.80;;
2396;SDS011;1209;48.410;9.054;2022-10-31T06:53:42;7.37;;;4.50;;
2396;SDS011;1209;48.410;9.054;2022-10-31T06:56:08;12.43;;;6.30;;
2396;SDS011;1209;48.410;9.054;2022-10-31T06:58:33;6.53;;;4.70;;
2396;SDS011;1209;48.410;9.054;2022-10-31T07:00:59;12.97;;;5.47;;
2396;SDS011;1209;48.410;9.054;2022-10-31T07:03:25;7.27;;;4.90;;
2396;SDS011;1209;48.410;9.054;2022-10-31T07:05:50;13.30;;;5.13;;
2396;SDS011;1209;48.410;9.054;2022-10-31T07:08:15;6.40;;;4.27;;
2396;SDS011;1209;48.410;9.054;2022-10-31T07:10:41;7.60;;;4.30;;
2396;SDS011;1209;48.410;9.054;2022-10-31T07:13:12;5.80;;;5.13;;
2396;SDS011;1209;48.410;9.054;2022-10-31T07:15:39;10.70;;;4.63;;
2396;SDS011;1209;48.410;9.054;2022-10-31T07:18:06;8.13;;;4.70;;
2396;SDS011;1209;48.410;9.054;2022-10-31T07:20:33;4.83;;;4.00;;
2396;SDS011;1209;48.410;9.054;2022-10-31T07:22:59;6.77;;;4.73;;
2396;SDS011;1209;48.410;9.054;2022-10-31T07:25:25;10.20;;;4.97;;
2396;SDS011;1209;48.410;9.054;2022-10-31T07:27:51;9.47;;;5.60;;
2396;SDS011;1209;48.410;9.054;2022-10-31T07:30:16;7.70;;;3.93;;
2396;SDS011;1209;48.410;9.054;2022-10-31T07:32:44;5.10;;;4.40;;
2396;SDS011;1209;48.410;9.054;2022-10-31T07:35:12;7.10;;;3.50;;
2396;SDS011;1209;48.410;9.054;2022-10-31T07:37:41;7.07;;;4.47;;
2396;SDS011;1209;48.410;9.054;2022-10-31T07:40:07;7.70;;;3.70;;
2396;SDS011;1209;48.410;9.054;2022-10-31T07:42:40;6.00;;;3.67;;
2396;SDS011;1209;48.410;9.054;2022-10-31T07:45:08;4.37;;;3.00;;
2396;SDS011;1209;48.410;9.054;2022-10-31T07:47:40;3.93;;;3.03;;
2396;SDS011;1209;48.410;9.054;2022-10-31T07:50:07;8.10;;;3.50;;
2396;SDS011;1209;48.410;9.054;2022-10-31T07:52:34;2.83;;;2.63;;
2396;SDS011;1209;48.410;9.054;2022-10-31T07:54:59;13.60;;;3.50;;
2396;SDS011;1209;48.410;9.054;2022-10-31T07:57:24;5.70;;;3.17;;
2396;SDS011;1209;48.410;9.054;2022-10-31T07:59:50;5.97;;;3.30;;
2396;SDS011;1209;48.410;9.054;2022-10-31T08:02:15;3.10;;;2.80;;
2396;SDS011;1209;48.410;9.054;2022-10-31T08:04:40;4.63;;;3.40;;
2396;SDS011;1209;48.410;9.054;2022-10-31T08:07:06;4.73;;;3.00;;
2396;SDS011;1209;48.410;9.054;2022-10-31T08:09:31;5.30;;;3.90;;
2396;SDS011;1209;48.410;9.054;2022-10-31T08:11:56;3.47;;;2.43;;
2396;SDS011;1209;48.410;9.054;2022-10-31T08:14:21;2.57;;;2.37;;
2396;SDS011;1209;48.410;9.054;2022-10-31T08:16:47;2.60;;;2.40;;
2396;SDS011;1209;48.410;9.054;2022-10-31T08:19:12;5.10;;;3.03;;
2396;SDS011;1209;48.410;9.054;2022-10-31T08:21:38;5.50;;;3.60;;
2396;SDS011;1209;48.410;9.054;2022-10-31T08:24:03;4.47;;;2.90;;
2396;SDS011;1209;48.410;9.054;2022-10-31T08:26:29;3.80;;;2.70;;
2396;SDS011;1209;48.410;9.054;2022-10-31T08:28:54;5.97;;;2.90;;
2396;SDS011;1209;48.410;9.054;2022-10-31T08:31:20;5.57;;;3.10;;
2396;SDS011;1209;48.410;9.054;2022-10-31T08:33:46;2.90;;;2.63;;
2396;SDS011;1209;48.410;9.054;2022-10-31T08:36:11;2.90;;;2.57;;
2396;SDS011;1209;48.410;9.054;2022-10-31T08:38:36;3.40;;;2.80;;
2396;SDS011;1209;48.410;9.054;2022-10-31T08:41:02;5.17;;;2.40;;
2396;SDS011;1209;48.410;9.054;2022-10-31T08:43:27;3.10;;;2.57;;
2396;SDS011;1209;48.410;9.054;2022-10-31T08:45:52;6.03;;;2.73;;
2396;SDS011;1209;48.410;9.054;2022-10-31T08:48:20;7.50;;;2.67;;
2396;SDS011;1209;48.410;9.054;2022-10-31T08:50:45;3.60;;;2.53;;
2396;SDS011;1209;48.410;9.054;2022-10-31T08:53:12;4.63;;;2.83;;
2396;SDS011;1209;48.410;9.054;2022-10-31T08:55:39;3.53;;;2.33;;
2396;SDS011;1209;48.410;9.054;2022-10-31T08:58:06;4.00;;;2.27;;
2396;SDS011;1209;48.410;9.054;2022-10-31T09:00:34;5.13;;;2.60;;
2396;SDS011;1209;48.410;9.054;2022-10-31T09:03:11;2.83;;;2.30;;
2396;SDS011;1209;48.410;9.054;2022-10-31T09:05:38;2.70;;;2.40;;
2396;SDS011;1209;48.410;9.054;2022-10-31T09:08:04;3.80;;;2.93;;
2396;SDS011;1209;48.410;9.054;2022-10-31T09:10:31;6.67;;;2.53;;
2396;SDS011;1209;48.410;9.054;2022-10-31T09:12:58;5.90;;;3.30;;
2396;SDS011;1209;48.410;9.054;2022-10-31T09:15:25;3.40;;;2.80;;
2396;SDS011;1209;48.410;9.054;2022-10-31T09:17:51;3.90;;;2.70;;
2396;SDS011;1209;48.410;9.054;2022-10-31T09:20:17;6.97;;;2.63;;
2396;SDS011;1209;48.410;9.054;2022-10-31T09:22:43;3.43;;;2.30;;
2396;SDS011;1209;48.410;9.054;2022-10-31T09:25:08;3.20;;;2.63;;
2396;SDS011;1209;48.410;9.054;2022-10-31T09:27:34;4.93;;;2.40;;
2396;SDS011;1209;48.410;9.054;2022-10-31T09:29:59;3.80;;;1.97;;
2396;SDS011;1209;48.410;9.054;2022-10-31T09:32:24;4.53;;;2.00;;
2396;SDS011;1209;48.410;9.054;2022-10-31T09:34:50;3.60;;;2.43;;
2396;SDS011;1209;48.410;9.054;2022-10-31T09:37:15;2.53;;;2.27;;
2396;SDS011;1209;48.410;9.054;2022-10-31T09:39:40;2.40;;;2.20;;
2396;SDS011;1209;48.410;9.054;2022-10-31T09:42:14;5.67;;;2.90;;
2396;SDS011;1209;48.410;9.054;2022-10-31T09:50:58;3.50;;;2.43;;
2396;SDS011;1209;48.410;9.054;2022-10-31T09:56:27;6.03;;;2.43;;
2396;SDS011;1209;48.410;9.054;2022-10-31T09:58:56;3.60;;;2.30;;
2396;SDS011;1209;48.410;9.054;2022-10-31T10:01:28;6.93;;;2.20;;
2396;SDS011;1209;48.410;9.054;2022-10-31T10:07:01;3.20;;;2.30;;
2396;SDS011;1209;48.410;9.054;2022-10-31T10:09:31;5.97;;;3.60;;
2396;SDS011;1209;48.410;9.054;2022-10-31T10:20:43;4.23;;;2.63;;
2396;SDS011;1209;48.410;9.054;2022-10-31T10:23:35;8.17;;;2.70;;
2396;SDS011;1209;48.410;9.054;2022-10-31T10:26:17;4.70;;;2.50;;
2396;SDS011;1209;48.410;9.054;2022-10-31T10:28:46;3.83;;;1.90;;
2396;SDS011;1209;48.410;9.054;2022-10-31T10:31:15;3.90;;;2.30;;
2396;SDS011;1209;48.410;9.054;2022-10-31T10:39:04;3.93;;;2.20;;
2396;SDS011;1209;48.410;9.054;2022-10-31T10:41:39;2.63;;;2.37;;
2396;SDS011;1209;48.410;9.054;2022-10-31T10:44:10;5.63;;;2.10;;
2396;SDS011;1209;48.410;9.054;2022-10-31T10:46:42;4.10;;;2.07;;
2396;SDS011;1209;48.410;9.054;2022-10-31T10:49:37;12.50;;;3.53;;
2396;SDS011;1209;48.410;9.054;2022-10-31T10:58:08;7.97;;;2.77;;
2396;SDS011;1209;48.410;9.054;2022-10-31T11:00:36;4.60;;;2.43;;
2396;SDS011;1209;48.410;9.054;2022-10-31T11:03:04;2.13;;;1.93;;
2396;SDS011;1209;48.410;9.054;2022-10-31T11:05:33;3.00;;;2.13;;
2396;SDS011;1209;48.410;9.054;2022-10-31T11:08:00;10.90;;;2.80;;
2396;SDS011;1209;48.410;9.054;2022-10-31T11:10:25;3.10;;;2.40;;
2396;SDS011;1209;48.410;9.054;2022-10-31T11:15:30;9.57;;;2.80;;
2396;SDS011;1209;48.410;9.054;2022-10-31T11:18:00;2.93;;;2.17;;
2396;SDS011;1209;48.410;9.054;2022-10-31T11:20:35;9.73;;;3.10;;
2396;SDS011;1209;48.410;9.054;2022-10-31T11:23:20;4.00;;;2.23;;
2396;SDS011;1209;48.410;9.054;2022-10-31T11:26:16;3.50;;;2.67;;
2396;SDS011;1209;48.410;9.054;2022-10-31T11:28:43;2.97;;;2.67;;
2396;SDS011;1209;48.410;9.054;2022-10-31T11:31:11;3.60;;;2.57;;
2396;SDS011;1209;48.410;9.054;2022-10-31T11:38:40;8.43;;;3.43;;
2396;SDS011;1209;48.410;9.054;2022-10-31T11:41:09;4.50;;;2.47;;
2396;SDS011;1209;48.410;9.054;2022-10-31T11:43:39;3.30;;;2.70;;
2396;SDS011;1209;48.410;9.054;2022-10-31T11:46:18;6.83;;;2.87;;
2396;SDS011;1209;48.410;9.054;2022-10-31T11:48:49;6.57;;;3.10;;
2396;SDS011;1209;48.410;9.054;2022-10-31T11:51:21;4.00;;;2.57;;
2396;SDS011;1209;48.410;9.054;2022-10-31T11:53:52;7.90;;;2.30;;
2396;SDS011;1209;48.410;9.054;2022-10-31T11:56:20;6.60;;;2.67;;
2396;SDS011;1209;48.410;9.054;2022-10-31T11:58:59;7.80;;;2.93;;
2396;SDS011;1209;48.410;9.054;2022-10-31T12:01:28;3.33;;;2.80;;
2396;SDS011;1209;48.410;9.054;2022-10-31T12:04:08;7.90;;;2.80;;
2396;SDS011;1209;48.410;9.054;2022-10-31T12:06:35;5.83;;;2.67;;
2396;SDS011;1209;48.410;9.054;2022-10-31T12:09:14;4.00;;;2.83;;
2396;SDS011;1209;48.410;9.054;2022-10-31T12:17:27;3.43;;;2.53;;
2396;SDS011;1209;48.410;9.054;2022-10-31T12:25:16;10.17;;;3.30;;
2396;SDS011;1209;48.410;9.054;2022-10-31T12:27:57;6.73;;;3.30;;
2396;SDS011;1209;48.410;9.054;2022-10-31T12:30:52;3.73;;;2.60;;
2396;SDS011;1209;48.410;9.054;2022-10-31T12:44:06;5.73;;;3.20;;
2396;SDS011;1209;48.410;9.054;2022-10-31T12:49:42;6.13;;;3.10;;
2396;SDS011;1209;48.410;9.054;2022-10-31T12:57:57;5.80;;;3.87;;
2396;SDS011;1209;48.410;9.054;2022-10-31T13:00:26;3.47;;;2.73;;
2396;SDS011;1209;48.410;9.054;2022-10-31T13:05:41;6.67;;;2.77;;
2396;SDS011;1209;48.410;9.054;2022-10-31T13:08:20;3.87;;;3.40;;
2396;SDS011;1209;48.410;9.054;2022-10-31T13:13:32;9.37;;;3.30;;
2396;SDS011;1209;48.410;9.054;2022-10-31T13:16:04;5.03;;;2.70;;
2396;SDS011;1209;48.410;9.054;2022-10-31T13:18:42;6.03;;;3.73;;
2396;SDS011;1209;48.410;9.054;2022-10-31T13:21:13;9.10;;;3.40;;
2396;SDS011;1209;48.410;9.054;2022-10-31T13:23:43;5.00;;;4.50;;
2396;SDS011;1209;48.410;9.054;2022-10-31T13:26:13;4.67;;;3.20;;
2396;SDS011;1209;48.410;9.054;2022-10-31T13:28:45;4.40;;;3.30;;
2396;SDS011;1209;48.410;9.054;2022-10-31T13:31:14;4.20;;;3.80;;
2396;SDS011;1209;48.410;9.054;2022-10-31T13:33:42;4.83;;;3.60;;
2396;SDS011;1209;48.410;9.054;2022-10-31T13:44:22;3.60;;;2.90;;
2396;SDS011;1209;48.410;9.054;2022-10-31T13:46:49;5.63;;;4.10;;
2396;SDS011;1209;48.410;9.054;2022-10-31T13:52:05;10.80;;;4.17;;
2396;SDS011;1209;48.410;9.054;2022-10-31T13:57:33;6.73;;;3.00;;
2396;SDS011;1209;48.410;9.054;2022-10-31T14:02:50;6.40;;;2.97;;
2396;SDS011;1209;48.410;9.054;2022-10-31T14:05:51;6.80;;;3.40;;
2396;SDS011;1209;48.410;9.054;2022-10-31T14:08:18;5.50;;;3.10;;
2396;SDS011;1209;48.410;9.054;2022-10-31T14:10:48;10.33;;;3.80;;
2396;SDS011;1209;48.410;9.054;2022-10-31T14:13:23;7.53;;;2.77;;
2396;SDS011;1209;48.410;9.054;2022-10-31T14:15:57;4.50;;;2.67;;
2396;SDS011;1209;48.410;9.054;2022-10-31T14:20:56;4.03;;;2.50;;
2396;SDS011;1209;48.410;9.054;2022-10-31T14:28:57;4.20;;;3.00;;
2396;SDS011;1209;48.410;9.054;2022-10-31T14:31:40;5.60;;;3.30;;
2396;SDS011;1209;48.410;9.054;2022-10-31T14:34:26;3.90;;;3.20;;
2396;SDS011;1209;48.410;9.054;2022-10-31T14:42:57;6.43;;;4.37;;
2396;SDS011;1209;48.410;9.054;2022-10-31T14:52:10;7.03;;;2.80;;
2396;SDS011;1209;48.410;9.054;2022-10-31T14:54:40;5.87;;;4.00;;
2396;SDS011;1209;48.410;9.054;2022-10-31T14:57:22;11.80;;;4.10;;
2396;SDS011;1209;48.410;9.054;2022-10-31T14:59:52;8.53;;;3.17;;
2396;SDS011;1209;48.410;9.054;2022-10-31T15:02:24;3.50;;;3.20;;
2396;SDS011;1209;48.410;9.054;2022-10-31T15:04:53;4.30;;;2.80;;
2396;SDS011;1209;48.410;9.054;2022-10-31T15:07:21;6.87;;;3.80;;
2396;SDS011;1209;48.410;9.054;2022-10-31T15:09:56;12.53;;;3.00;;
2396;SDS011;1209;48.410;9.054;2022-10-31T15:14:50;9.73;;;4.00;;
2396;SDS011;1209;48.410;9.054;2022-10-31T15:17:16;10.27;;;4.27;;
2396;SDS011;1209;48.410;9.054;2022-10-31T15:19:42;11.67;;;4.90;;
2396;SDS011;1209;48.410;9.054;2022-10-31T15:22:13;7.10;;;4.37;;
2396;SDS011;1209;48.410;9.054;2022-10-31T15:24:41;10.20;;;4.30;;
2396;SDS011;1209;48.410;9.054;2022-10-31T15:27:15;6.97;;;4.40;;
2396;SDS011;1209;48.410;9.054;2022-10-31T15:29:48;6.20;;;4.00;;
2396;SDS011;1209;48.410;9.054;2022-10-31T15:32:18;9.37;;;4.50;;
2396;SDS011;1209;48.410;9.054;2022-10-31T15:34:54;6.77;;;4.33;;
2396;SDS011;1209;48.410;9.054;2022-10-31T15:37:21;8.60;;;4.10;;
2396;SDS011;1209;48.410;9.054;2022-10-31T15:39:49;9.10;;;5.07;;
2396;SDS011;1209;48.410;9.054;2022-10-31T15:42:21;8.73;;;4.60;;
2396;SDS011;1209;48.410;9.054;2022-10-31T15:44:59;6.30;;;4.13;;
2396;SDS011;1209;48.410;9.054;2022-10-31T15:47:28;7.40;;;4.13;;
2396;SDS011;1209;48.410;9.054;2022-10-31T15:49:56;5.80;;;3.80;;
2396;SDS011;1209;48.410;9.054;2022-10-31T15:54:55;11.27;;;5.83;;
2396;SDS011;1209;48.410;9.054;2022-10-31T15:57:44;5.73;;;4.67;;
2396;SDS011;1209;48.410;9.054;2022-10-31T16:00:25;9.10;;;5.20;;
2396;SDS011;1209;48.410;9.054;2022-10-31T16:05:45;8.30;;;5.00;;
2396;SDS011;1209;48.410;9.054;2022-10-31T16:08:26;9.37;;;5.27;;
2396;SDS011;1209;48.410;9.054;2022-10-31T16:13:34;6.17;;;5.17;;
2396;SDS011;1209;48.410;9.054;2022-10-31T16:16:12;6.30;;;5.50;;
2396;SDS011;1209;48.410;9.054;2022-10-31T16:18:40;8.50;;;6.53;;
2396;SDS011;1209;48.410;9.054;2022-10-31T16:21:06;10.57;;;7.03;;
2396;SDS011;1209;48.410;9.054;2022-10-31T16:23:33;13.70;;;7.87;;
2396;SDS011;1209;48.410;9.054;2022-10-31T16:26:05;14.47;;;8.50;;
2396;SDS011;1209;48.410;9.054;2022-10-31T16:28:31;13.00;;;7.93;;
2396;SDS011;1209;48.410;9.054;2022-10-31T16:30:57;12.53;;;7.73;;
2396;SDS011;1209;48.410;9.054;2022-10-31T16:39:04;9.77;;;6.80;;
2396;SDS011;1209;48.410;9.054;2022-10-31T16:41:37;9.80;;;5.93;;
2396;SDS011;1209;48.410;9.054;2022-10-31T16:44:06;6.80;;;6.13;;
2396;SDS011;1209;48.410;9.054;2022-10-31T16:46:40;13.20;;;6.70;;
2396;SDS011;1209;48.410;9.054;2022-10-31T16:49:07;16.03;;;8.57;;
2396;SDS011;1209;48.410;9.054;2022-10-31T16:51:33;11.30;;;7.03;;
2396;SDS011;1209;48.410;9.054;2022-10-31T16:53:59;12.30;;;7.90;;
2396;SDS011;1209;48.410;9.054;2022-10-31T16:56:27;16.53;;;9.50;;
2396;SDS011;1209;48.410;9.054;2022-10-31T16:58:54;17.93;;;10.40;;
2396;SDS011;1209;48.410;9.054;2022-10-31T17:01:20;16.00;;;8.60;;
2396;SDS011;1209;48.410;9.054;2022-10-31T17:03:45;19.57;;;11.37;;
2396;SDS011;1209;48.410;9.054;2022-10-31T17:06:14;16.33;;;10.83;;
2396;SDS011;1209;48.410;9.054;2022-10-31T17:08:39;20.03;;;10.70;;
2396;SDS011;1209;48.410;9.054;2022-10-31T17:11:05;20.73;;;12.00;;
2396;SDS011;1209;48.410;9.054;2022-10-31T17:13:38;13.33;;;8.53;;
2396;SDS011;1209;48.410;9.054;2022-10-31T17:16:04;16.33;;;10.47;;
2396;SDS011;1209;48.410;9.054;2022-10-31T17:18:30;16.00;;;9.33;;
2396;SDS011;1209;48.410;9.054;2022-10-31T17:20:59;17.97;;;12.03;;
2396;SDS011;1209;48.410;9.054;2022-10-31T17:23:26;15.50;;;10.17;;
2396;SDS011;1209;48.410;9.054;2022-10-31T17:25:52;19.47;;;11.30;;
2396;SDS011;1209;48.410;9.054;2022-10-31T17:28:18;20.73;;;9.80;;
2396;SDS011;1209;48.410;9.054;2022-10-31T17:30:43;19.50;;;10.17;;
2396;SDS011;1209;48.410;9.054;2022-10-31T17:33:12;15.13;;;8.43;;
2396;SDS011;1209;48.410;9.054;2022-10-31T17:35:39;19.03;;;9.80;;
2396;SDS011;1209;48.410;9.054;2022-10-31T17:38:05;13.70;;;9.90;;
2396;SDS011;1209;48.410;9.054;2022-10-31T17:40:31;13.67;;;8.97;;
2396;SDS011;1209;48.410;9.054;2022-10-31T17:42:57;13.07;;;8.00;;
2396;SDS011;1209;48.410;9.054;2022-10-31T17:45:23;10.03;;;7.30;;
2396;SDS011;1209;48.410;9.054;2022-10-31T17:47:50;16.80;;;9.70;;
2396;SDS011;1209;48.410;9.054;2022-10-31T17:50:18;18.13;;;9.37;;
2396;SDS011;1209;48.410;9.054;2022-10-31T17:52:45;12.43;;;8.70;;
2396;SDS011;1209;48.410;9.054;2022-10-31T17:55:10;14.33;;;7.27;;
2396;SDS011;1209;48.410;9.054;2022-10-31T17:57:37;13.43;;;7.77;;
2396;SDS011;1209;48.410;9.054;2022-10-31T18:00:03;12.13;;;7.90;;
2396;SDS011;1209;48.410;9.054;2022-10-31T18:02:30;9.20;;;6.60;;
2396;SDS011;1209;48.410;9.054;2022-10-31T18:04:55;12.90;;;8.33;;
2396;SDS011;1209;48.410;9.054;2022-10-31T18:07:20;10.67;;;7.33;;